ADDS TAF Data INFO
IDs: Format: Raw Decoded Include METARs

Data at: 0857 UTC 18 Aug 2017

TAF for:KSNS (Salinas Muni, CA, US) issued at 0524 UTC 18 Aug 2017
Text:KSNS 180524Z 1806/1906 29007KT P6SM SKC
Forecast period:0600 to 0900 UTC 18 August 2017
Forecast type:FROM: standard forecast or significant change
Winds:from the WNW (290 degrees) at 8 MPH (7 knots; 3.6 m/s)
Visibility:6 or more sm (10+ km)
Ceiling:at least 12,000 feet AGL
Clouds:clear skies
Text:FM180900 29004KT P6SM SKC
Forecast period:0900 to 1900 UTC 18 August 2017
Forecast type:FROM: standard forecast or significant change
Winds:from the WNW (290 degrees) at 5 MPH (4 knots; 2.1 m/s)
Visibility:6 or more sm (10+ km)
Ceiling:at least 12,000 feet AGL
Clouds:clear skies
Text:FM181900 29012KT P6SM SKC
Forecast period:1900 UTC 18 August 2017 to 0400 UTC 19 August 2017
Forecast type:FROM: standard forecast or significant change
Winds:from the WNW (290 degrees) at 14 MPH (12 knots; 6.2 m/s)
Visibility:6 or more sm (10+ km)
Ceiling:at least 12,000 feet AGL
Clouds:clear skies
Text:FM190400 29006KT P6SM SKC
Forecast period:0400 to 0600 UTC 19 August 2017
Forecast type:FROM: standard forecast or significant change
Winds:from the WNW (290 degrees) at 7 MPH (6 knots; 3.1 m/s)
Visibility:6 or more sm (10+ km)
Ceiling:at least 12,000 feet AGL
Clouds:clear skies